createdAt,value
2019-05-03T00:01:12.979Z,100812.95
2019-05-03T00:03:57.392Z,100780.24
2019-05-03T00:06:42.657Z,100808.74
2019-05-03T00:09:26.939Z,100820.77
2019-05-03T00:12:12.499Z,100825.80
2019-05-03T00:15:02.707Z,100799.87
2019-05-03T00:17:58.516Z,100820.75
2019-05-03T00:20:42.166Z,100819.77
2019-05-03T00:23:26.410Z,100819.75
2019-05-03T00:26:12.020Z,100818.33
2019-05-03T00:28:55.717Z,100787.36
2019-05-03T00:31:39.656Z,100791.91
2019-05-03T00:34:28.885Z,100790.61
2019-05-03T00:37:15.174Z,100815.92
2019-05-03T00:40:19.368Z,100792.09
2019-05-03T00:43:07.745Z,100787.55
2019-05-03T00:45:51.735Z,100783.17
2019-05-03T00:48:35.879Z,100814.80
2019-05-03T00:54:25.914Z,100794.19
2019-05-03T00:57:11.949Z,100780.58
2019-05-03T00:59:55.724Z,100776.23
2019-05-03T01:02:42.209Z,100778.31
2019-05-03T01:05:26.032Z,100776.37
2019-05-03T01:08:12.497Z,100803.42
2019-05-03T01:10:57.798Z,100775.23
2019-05-03T01:13:42.338Z,100795.50
2019-05-03T01:16:26.445Z,100798.58
2019-05-03T01:19:12.069Z,100778.48
2019-05-03T01:21:56.003Z,100775.56
2019-05-03T01:24:40.304Z,100802.47
2019-05-03T01:27:24.075Z,100784.32
2019-05-03T01:30:07.857Z,100787.41
2019-05-03T01:32:52.644Z,100791.28
2019-05-03T01:35:37.022Z,100781.56
2019-05-03T01:38:22.980Z,100814.58
2019-05-03T01:41:06.790Z,100795.45
2019-05-03T01:43:41.808Z,100833.69
2019-05-03T01:46:43.087Z,100845.52
2019-05-03T01:49:52.035Z,100809.33
2019-05-03T01:52:54.011Z,100822.72
2019-05-03T01:56:03.782Z,100816.89
2019-05-03T01:58:47.916Z,100790.25
2019-05-03T02:04:41.791Z,100789.64
2019-05-03T02:07:26.475Z,100787.23
2019-05-03T02:10:12.315Z,100797.94
2019-05-03T02:12:56.022Z,100803.90
2019-05-03T02:15:39.679Z,100804.39
2019-05-03T02:18:23.337Z,100804.08
2019-05-03T02:21:07.423Z,100800.80
2019-05-03T02:23:52.175Z,100830.80
2019-05-03T02:26:37.308Z,100804.38
2019-05-03T02:29:23.129Z,100833.25
2019-05-03T02:32:07.231Z,100809.21
2019-05-03T02:34:53.485Z,100831.91
2019-05-03T02:37:39.490Z,100810.52
2019-05-03T02:40:24.746Z,100830.82
2019-05-03T02:46:37.399Z,100834.30
2019-05-03T02:49:41.237Z,100834.13
2019-05-03T02:52:45.802Z,100806.28
2019-05-03T02:55:30.100Z,100813.91
2019-05-03T02:58:15.830Z,100808.41
2019-05-03T03:01:00.343Z,100841.78
2019-05-03T03:03:45.729Z,100848.20
2019-05-03T03:06:30.196Z,100841.89
2019-05-03T03:09:16.451Z,100839.34
2019-05-03T03:11:59.682Z,100821.32
2019-05-03T03:14:45.589Z,100849.89
2019-05-03T03:17:30.165Z,100834.00
2019-05-03T03:20:16.113Z,100853.45
2019-05-03T03:22:59.175Z,100841.88
2019-05-03T03:25:46.251Z,100823.73
2019-05-03T03:28:32.223Z,100855.77
2019-05-03T03:31:38.295Z,100827.73
2019-05-03T03:34:27.974Z,100836.52
2019-05-03T03:37:10.478Z,100830.22
2019-05-03T03:39:56.129Z,100858.56
2019-05-03T03:42:45.095Z,100838.74
2019-05-03T03:45:29.206Z,100846.39
2019-05-03T03:48:15.579Z,100854.68
2019-05-03T03:50:59.980Z,100847.66
2019-05-03T03:53:46.485Z,100866.48
2019-05-03T03:56:31.724Z,100846.81
2019-05-03T03:59:15.605Z,100853.83
2019-05-03T04:02:01.018Z,100851.22
2019-05-03T04:04:45.404Z,100885.02
2019-05-03T04:07:29.261Z,100887.30
2019-05-03T04:10:15.677Z,100893.61
2019-05-03T04:13:05.448Z,100875.77
2019-05-03T04:16:29.764Z,100873.20
2019-05-03T04:19:18.336Z,100901.55
2019-05-03T04:22:08.333Z,100882.44
2019-05-03T04:24:57.194Z,100889.89
2019-05-03T04:27:41.843Z,100885.98
2019-05-03T04:30:26.520Z,100918.29
2019-05-03T04:33:10.793Z,100915.38
2019-05-03T04:35:55.694Z,100923.16
2019-05-03T04:38:39.649Z,100922.05
2019-05-03T04:41:28.613Z,100919.94
2019-05-03T04:44:12.113Z,100898.72
2019-05-03T04:46:58.432Z,100926.27
2019-05-03T04:49:49.655Z,100902.13
2019-05-03T04:52:41.317Z,100900.83
2019-05-03T04:55:26.775Z,100901.78
2019-05-03T04:58:12.823Z,100939.44
2019-05-03T05:00:57.369Z,100948.66
2019-05-03T05:03:45.534Z,100953.52
2019-05-03T05:06:35.005Z,100954.16
2019-05-03T05:09:30.528Z,100933.75
2019-05-03T05:12:16.282Z,100936.04
2019-05-03T05:15:00.329Z,100937.19
2019-05-03T05:18:09.825Z,100945.96
2019-05-03T05:21:18.056Z,100967.02
2019-05-03T05:24:05.605Z,100959.73
2019-05-03T05:26:56.729Z,100959.68
2019-05-03T05:29:40.369Z,100966.14
2019-05-03T05:32:24.727Z,100972.02
2019-05-03T05:35:08.885Z,100962.75
2019-05-03T05:37:54.658Z,100938.91
2019-05-03T05:40:39.290Z,100954.67
2019-05-03T05:43:25.524Z,100947.55
2019-05-03T05:46:12.004Z,100955.19
2019-05-03T05:48:56.475Z,100959.25
2019-05-03T05:51:41.191Z,100977.41
2019-05-03T05:54:25.413Z,100954.25
2019-05-03T05:57:28.895Z,100957.63
2019-05-03T06:03:17.111Z,100985.07
2019-05-03T06:06:05.667Z,100986.88
2019-05-03T06:09:08.905Z,100972.22
2019-05-03T06:15:01.836Z,100979.69
2019-05-03T06:21:11.542Z,100995.95
2019-05-03T06:33:19.673Z,100983.04
2019-05-03T06:36:08.227Z,100990.63
2019-05-03T06:39:10.766Z,100988.85
2019-05-03T06:41:56.302Z,100969.83
2019-05-03T06:44:40.418Z,100970.45
2019-05-03T06:47:31.902Z,100968.97
2019-05-03T06:50:34.781Z,100965.55
2019-05-03T06:53:20.063Z,100984.47
2019-05-03T06:56:07.109Z,100963.70
2019-05-03T06:58:52.359Z,100956.88
2019-05-03T07:02:01.830Z,100956.43
2019-05-03T07:04:48.754Z,100954.86
2019-05-03T07:07:57.552Z,100972.87
2019-05-03T07:10:45.637Z,100947.81
2019-05-03T07:13:30.668Z,100971.93
2019-05-03T07:16:15.090Z,100953.17
2019-05-03T07:19:00.738Z,100971.80
2019-05-03T07:21:44.797Z,100980.16
2019-05-03T07:24:30.320Z,100984.11
2019-05-03T07:27:15.919Z,100984.53
2019-05-03T07:30:00.707Z,100966.59
2019-05-03T07:32:46.360Z,100968.95
2019-05-03T07:35:32.712Z,100970.17
2019-05-03T07:38:16.310Z,100959.13
2019-05-03T07:41:02.171Z,100980.59
2019-05-03T07:43:46.868Z,100955.17
2019-05-03T07:46:34.750Z,100957.62
2019-05-03T07:49:18.271Z,100950.40
2019-05-03T07:52:05.619Z,100949.63
2019-05-03T07:54:49.518Z,100946.19
2019-05-03T08:01:05.453Z,100975.80
2019-05-03T08:03:46.385Z,100947.55
2019-05-03T08:06:31.192Z,100973.53
2019-05-03T08:09:18.413Z,100971.77
2019-05-03T08:12:04.915Z,100969.09
2019-05-03T08:14:48.929Z,100972.19
2019-05-03T08:17:34.690Z,100951.20
2019-05-03T08:20:18.499Z,100968.64
2019-05-03T08:23:02.586Z,100959.16
2019-05-03T08:25:46.611Z,100984.25
2019-05-03T08:28:31.989Z,100962.58
2019-05-03T08:37:59.674Z,100997.45
2019-05-03T08:40:47.148Z,100995.53
2019-05-03T08:46:36.799Z,101002.42
2019-05-03T08:49:22.789Z,101012.47
2019-05-03T08:52:07.043Z,100984.09
2019-05-03T08:54:51.338Z,100986.77
2019-05-03T08:57:35.996Z,101013.34
2019-05-03T09:00:22.067Z,100992.03
2019-05-03T09:03:06.415Z,100987.99
2019-05-03T09:05:51.035Z,100980.56
2019-05-03T09:11:48.401Z,100970.67
2019-05-03T09:14:24.499Z,100980.81
2019-05-03T09:17:15.324Z,100963.15
2019-05-03T09:20:02.235Z,100989.20
2019-05-03T09:22:47.450Z,100987.22
2019-05-03T09:25:35.598Z,100972.16
2019-05-03T09:28:19.653Z,100991.38
2019-05-03T09:31:04.647Z,100996.69
2019-05-03T09:33:48.674Z,100983.03
2019-05-03T09:36:39.375Z,101009.93
2019-05-03T09:39:47.171Z,101017.05
2019-05-03T09:42:31.309Z,100992.03
2019-05-03T09:45:15.424Z,100993.48
2019-05-03T09:48:00.243Z,100983.64
2019-05-03T09:50:45.745Z,100977.77
2019-05-03T09:53:35.114Z,100992.36
2019-05-03T09:59:56.395Z,100960.42
2019-05-03T10:02:32.659Z,100983.03
2019-05-03T10:05:17.147Z,100991.77
2019-05-03T10:08:00.984Z,100987.11
2019-05-03T10:11:05.542Z,100966.18
2019-05-03T10:13:50.446Z,100986.82
2019-05-03T10:16:38.690Z,100960.30
2019-05-03T10:19:34.859Z,100961.77
2019-05-03T10:22:15.497Z,100979.97
2019-05-03T10:25:00.132Z,100971.70
2019-05-03T10:27:47.139Z,100972.55
2019-05-03T10:30:30.989Z,100965.25
2019-05-03T10:33:19.862Z,100964.18
2019-05-03T10:36:05.619Z,100989.83
2019-05-03T10:38:50.088Z,100965.30
2019-05-03T10:41:34.771Z,100990.38
2019-05-03T10:44:19.049Z,100959.67
2019-05-03T10:47:05.534Z,100974.02
2019-05-03T10:49:50.456Z,100964.48
2019-05-03T10:55:37.425Z,100984.59
2019-05-03T10:58:21.548Z,100964.73
2019-05-03T11:01:06.017Z,101001.27
2019-05-03T11:03:50.497Z,100990.84
2019-05-03T11:06:35.545Z,101010.09
2019-05-03T11:09:21.405Z,101008.47
2019-05-03T11:12:08.675Z,100995.60
2019-05-03T11:14:52.708Z,100991.09
2019-05-03T11:17:37.452Z,100957.40
2019-05-03T11:20:34.610Z,100947.67
2019-05-03T11:23:34.573Z,100971.91
2019-05-03T11:26:19.329Z,100964.97
2019-05-03T11:29:05.221Z,100966.06
2019-05-03T11:32:11.999Z,100943.51
2019-05-03T11:38:36.945Z,100934.77
2019-05-03T11:41:30.196Z,100936.64
2019-05-03T11:44:26.652Z,100942.53
2019-05-03T11:47:10.399Z,100946.33
2019-05-03T11:49:55.243Z,100949.62
2019-05-03T11:52:40.242Z,100967.63
2019-05-03T11:55:26.817Z,100944.86
2019-05-03T12:04:17.868Z,100968.56
2019-05-03T12:07:02.043Z,100972.40
2019-05-03T12:09:46.789Z,100968.15
2019-05-03T12:12:35.337Z,100965.02
2019-05-03T12:15:20.148Z,100966.86
2019-05-03T12:18:08.017Z,100978.20
2019-05-03T12:20:56.242Z,100958.53
2019-05-03T12:23:40.214Z,100938.63
2019-05-03T12:26:25.981Z,100957.25
2019-05-03T12:29:12.063Z,100948.87
2019-05-03T12:31:56.370Z,100937.09
2019-05-03T12:34:39.998Z,100932.11
2019-05-03T12:37:26.327Z,100936.93
2019-05-03T12:40:14.897Z,100949.38
2019-05-03T12:42:59.135Z,100949.41
2019-05-03T12:45:43.873Z,100930.50
2019-05-03T12:48:28.827Z,100930.06
2019-05-03T12:51:15.006Z,100949.27
2019-05-03T12:53:58.259Z,100926.66
2019-05-03T12:56:32.662Z,100943.46
2019-05-03T12:59:48.012Z,100919.64
2019-05-03T13:02:57.083Z,100931.11
2019-05-03T13:05:41.669Z,100908.27
2019-05-03T13:08:49.419Z,100940.77
2019-05-03T13:11:36.597Z,100909.93
2019-05-03T13:14:21.522Z,100939.23
2019-05-03T13:17:05.678Z,100905.81
2019-05-03T13:19:49.346Z,100936.33
2019-05-03T13:22:35.076Z,100934.02
2019-05-03T13:25:19.347Z,100930.10
2019-05-03T13:28:05.486Z,100904.26
2019-05-03T13:30:50.373Z,100899.33
2019-05-03T13:33:34.964Z,100921.47
2019-05-03T13:36:21.980Z,100905.03
2019-05-03T13:39:13.190Z,100894.63
2019-05-03T13:42:05.796Z,100894.21
2019-05-03T13:45:04.751Z,100892.23
2019-05-03T13:47:49.119Z,100889.61
2019-05-03T13:50:35.145Z,100891.37
2019-05-03T13:53:19.834Z,100905.09
2019-05-03T13:56:04.991Z,100901.86
2019-05-03T13:58:49.745Z,100873.31
2019-05-03T14:01:34.448Z,100882.31
2019-05-03T14:04:21.281Z,100897.16
2019-05-03T14:07:09.217Z,100883.39
2019-05-03T14:09:55.567Z,100871.46
2019-05-03T14:12:39.366Z,100898.52
2019-05-03T14:15:25.421Z,100885.17
2019-05-03T14:18:10.759Z,100898.69
2019-05-03T14:24:15.754Z,100896.73
2019-05-03T14:27:02.563Z,100874.81
2019-05-03T14:29:54.908Z,100887.97
2019-05-03T14:32:57.036Z,100883.03
2019-05-03T14:35:31.982Z,100889.55
2019-05-03T14:38:16.639Z,100868.89
2019-05-03T14:41:01.343Z,100855.31
2019-05-03T14:43:45.883Z,100853.81
2019-05-03T14:46:33.325Z,100874.45
2019-05-03T14:49:16.762Z,100852.64
2019-05-03T14:52:00.868Z,100844.82
2019-05-03T14:54:47.281Z,100873.16
2019-05-03T14:57:35.140Z,100847.73
2019-05-03T15:00:38.769Z,100843.73
2019-05-03T15:03:15.119Z,100857.75
2019-05-03T15:06:05.160Z,100854.47
2019-05-03T15:09:01.631Z,100859.38
2019-05-03T15:11:48.209Z,100851.71
2019-05-03T15:17:41.781Z,100831.94
2019-05-03T15:20:26.864Z,100832.97
2019-05-03T15:23:11.747Z,100831.95
2019-05-03T15:25:56.089Z,100815.41
2019-05-03T15:28:44.920Z,100838.33
2019-05-03T15:31:31.038Z,100838.84
2019-05-03T15:34:15.209Z,100817.78
2019-05-03T15:36:59.916Z,100836.48
2019-05-03T15:39:45.217Z,100828.42
2019-05-03T15:42:30.396Z,100828.58
2019-05-03T15:48:24.674Z,100830.23
2019-05-03T15:51:16.155Z,100798.45
2019-05-03T15:54:01.040Z,100829.69
2019-05-03T15:56:45.325Z,100812.41
2019-05-03T15:59:30.194Z,100815.44
2019-05-03T16:02:15.179Z,100831.70
2019-05-03T16:05:02.616Z,100798.00
2019-05-03T16:07:48.056Z,100820.67
2019-05-03T16:10:33.230Z,100817.59
2019-05-03T16:13:17.575Z,100826.03
2019-05-03T16:16:02.122Z,100821.92
2019-05-03T16:18:46.874Z,100796.20
2019-05-03T16:21:31.537Z,100795.93
2019-05-03T16:24:16.271Z,100804.48
2019-05-03T16:33:27.672Z,100820.16
2019-05-03T16:36:11.143Z,100801.41
2019-05-03T16:38:55.941Z,100798.50
2019-05-03T16:41:40.204Z,100821.98
2019-05-03T16:44:25.518Z,100821.65
2019-05-03T16:47:09.444Z,100812.19
2019-05-03T16:49:54.010Z,100800.84
2019-05-03T16:52:40.823Z,100820.41
2019-05-03T16:55:25.680Z,100792.45
2019-05-03T16:58:10.356Z,100788.62
2019-05-03T17:00:55.345Z,100789.24
2019-05-03T17:07:09.573Z,100809.80
2019-05-03T17:10:15.179Z,100811.78
2019-05-03T17:12:59.419Z,100788.82
2019-05-03T17:15:43.801Z,100791.03
2019-05-03T17:18:28.637Z,100814.05
2019-05-03T17:21:14.593Z,100816.22
2019-05-03T17:24:00.220Z,100791.94
2019-05-03T17:26:46.249Z,100832.72
2019-05-03T17:29:18.761Z,100842.12
2019-05-03T17:32:04.909Z,100830.48
2019-05-03T17:34:54.703Z,100844.41
2019-05-03T17:37:39.939Z,100846.34
2019-05-03T17:40:44.238Z,100846.34
2019-05-03T17:43:45.155Z,100818.61
2019-05-03T17:46:42.409Z,100846.56
2019-05-03T17:49:26.454Z,100837.09
2019-05-03T17:52:29.296Z,100824.50
2019-05-03T17:58:39.633Z,100797.82
2019-05-03T18:01:44.617Z,100786.93
2019-05-03T18:07:39.654Z,100782.66
2019-05-03T18:10:41.496Z,100804.16
2019-05-03T18:13:26.123Z,100800.87
2019-05-03T18:16:10.085Z,100773.37
2019-05-03T18:18:54.819Z,100760.77
2019-05-03T18:21:39.036Z,100797.67
2019-05-03T18:24:24.800Z,100787.61
2019-05-03T18:27:08.698Z,100812.12
2019-05-03T18:29:52.616Z,100808.31
2019-05-03T18:32:37.067Z,100797.05
2019-05-03T18:35:21.455Z,100810.67
2019-05-03T18:38:05.566Z,100831.39
2019-05-03T18:40:51.284Z,100818.16
2019-05-03T18:46:51.515Z,100834.05
2019-05-03T18:49:37.247Z,100810.66
2019-05-03T18:52:21.799Z,100806.63
2019-05-03T18:55:05.634Z,100834.46
2019-05-03T18:57:49.920Z,100815.55
2019-05-03T19:00:35.106Z,100833.64
2019-05-03T19:03:20.705Z,100832.12
2019-05-03T19:06:07.061Z,100817.28
2019-05-03T19:09:10.087Z,100835.84
2019-05-03T19:12:16.092Z,100807.25
2019-05-03T19:15:00.480Z,100835.62
2019-05-03T19:20:48.678Z,100854.36
2019-05-03T19:23:32.787Z,100836.12
2019-05-03T19:26:17.634Z,100861.17
2019-05-03T19:29:01.857Z,100827.52
2019-05-03T19:31:47.721Z,100853.30
2019-05-03T19:34:44.135Z,100824.47
2019-05-03T19:37:25.343Z,100842.08
2019-05-03T19:40:09.713Z,100839.95
2019-05-03T19:42:58.326Z,100805.33
2019-05-03T19:45:44.895Z,100802.36
2019-05-03T19:48:29.587Z,100794.64
2019-05-03T19:51:13.878Z,100814.70
2019-05-03T19:53:58.547Z,100814.02
2019-05-03T19:56:42.219Z,100811.88
2019-05-03T19:59:45.369Z,100795.22
2019-05-03T20:02:49.735Z,100790.83
2019-05-03T20:08:41.153Z,100782.95
2019-05-03T20:11:25.437Z,100805.94
2019-05-03T20:14:09.550Z,100773.84
2019-05-03T20:16:54.945Z,100799.27
2019-05-03T20:19:39.674Z,100795.59
2019-05-03T20:22:24.656Z,100809.91
2019-05-03T20:25:08.575Z,100830.96
2019-05-03T20:27:53.043Z,100790.44
2019-05-03T20:30:37.452Z,100805.55
2019-05-03T20:33:21.622Z,100776.05
2019-05-03T20:36:05.231Z,100774.27
2019-05-03T20:38:50.288Z,100770.88
2019-05-03T20:41:35.032Z,100767.13
2019-05-03T20:47:26.389Z,100752.69
2019-05-03T20:50:17.573Z,100755.61
2019-05-03T20:53:16.186Z,100749.45
2019-05-03T20:56:00.432Z,100758.56
2019-05-03T20:58:44.820Z,100781.22
2019-05-03T21:01:29.127Z,100778.16
2019-05-03T21:04:15.185Z,100746.72
2019-05-03T21:06:59.518Z,100753.85
2019-05-03T21:09:45.597Z,100778.64
2019-05-03T21:12:31.442Z,100778.16
2019-05-03T21:18:38.000Z,100772.48
2019-05-03T21:21:45.241Z,100743.99
2019-05-03T21:27:31.259Z,100747.39
2019-05-03T21:30:16.488Z,100732.97
2019-05-03T21:33:00.947Z,100754.82
2019-05-03T21:35:49.233Z,100728.44
2019-05-03T21:38:35.423Z,100755.64
2019-05-03T21:41:19.877Z,100750.80
2019-05-03T21:44:04.813Z,100724.06
2019-05-03T21:46:50.547Z,100732.16
2019-05-03T21:49:40.128Z,100754.20
2019-05-03T21:52:24.980Z,100727.77
2019-05-03T21:55:09.486Z,100748.53
2019-05-03T21:57:55.186Z,100722.45
2019-05-03T22:03:44.627Z,100756.27
2019-05-03T22:06:28.481Z,100734.27
2019-05-03T22:09:12.498Z,100736.86
2019-05-03T22:11:57.762Z,100737.51
2019-05-03T22:18:11.090Z,100739.75
2019-05-03T22:21:16.397Z,100762.77
2019-05-03T22:27:08.706Z,100753.36
2019-05-03T22:29:54.576Z,100724.20
2019-05-03T22:32:39.088Z,100751.42
2019-05-03T22:35:24.955Z,100727.94
2019-05-03T22:38:08.406Z,100731.98
2019-05-03T22:40:55.316Z,100727.09
2019-05-03T22:43:39.217Z,100738.47
2019-05-03T22:46:24.842Z,100712.84
2019-05-03T22:49:08.717Z,100747.34
2019-05-03T22:51:54.398Z,100743.14
2019-05-03T22:54:38.060Z,100709.61
2019-05-03T22:57:22.222Z,100722.09
2019-05-03T23:00:10.402Z,100696.82
2019-05-03T23:03:07.279Z,100695.03
2019-05-03T23:08:35.262Z,100722.07
2019-05-03T23:11:20.593Z,100687.26
2019-05-03T23:14:05.148Z,100716.25
2019-05-03T23:16:49.043Z,100699.43
2019-05-03T23:19:34.767Z,100748.48
2019-05-03T23:25:32.126Z,100687.13
2019-05-03T23:28:04.697Z,100709.66
2019-05-03T23:30:48.762Z,100689.72
2019-05-03T23:33:34.364Z,100675.62
2019-05-03T23:36:18.184Z,100705.41
2019-05-03T23:39:02.519Z,100665.89
2019-05-03T23:41:47.737Z,100672.55
2019-05-03T23:44:31.721Z,100669.42
2019-05-03T23:47:40.632Z,100691.80
2019-05-03T23:50:24.843Z,100696.81
2019-05-03T23:53:09.444Z,100695.53
2019-05-03T23:58:58.948Z,100708.80
